createdAt,value
2019-02-28T00:00:59.913Z,20.40
2019-02-28T00:02:03.953Z,17.52
2019-02-28T00:03:07.680Z,16.75
2019-02-28T00:04:11.319Z,16.93
2019-02-28T00:05:14.960Z,17.75
2019-02-28T00:06:18.600Z,18.55
2019-02-28T00:07:22.230Z,17.85
2019-02-28T00:08:25.968Z,16.87
2019-02-28T00:09:29.542Z,16.67
2019-02-28T00:10:33.177Z,17.70
2019-02-28T00:11:39.573Z,17.60
2019-02-28T00:12:42.274Z,17.32
2019-02-28T00:13:45.915Z,15.30
2019-02-28T00:14:49.644Z,16.27
2019-02-28T00:15:53.661Z,16.95
2019-02-28T00:16:57.236Z,17.15
2019-02-28T00:18:00.865Z,17.55
2019-02-28T00:19:04.951Z,17.45
2019-02-28T00:20:09.591Z,18.57
2019-02-28T00:21:13.226Z,17.70
2019-02-28T00:22:17.152Z,18.82
2019-02-28T00:23:21.955Z,18.77
2019-02-28T00:24:27.221Z,17.70
2019-02-28T00:25:31.549Z,17.98
2019-02-28T00:26:35.196Z,18.82
2019-02-28T00:27:38.839Z,17.52
2019-02-28T00:28:42.472Z,17.67
2019-02-28T00:29:46.141Z,18.80
2019-02-28T00:30:49.813Z,18.10
2019-02-28T00:31:53.452Z,19.35
2019-02-28T00:34:18.317Z,17.15
2019-02-28T00:35:21.983Z,18.10
2019-02-28T00:36:25.625Z,17.65
2019-02-28T00:37:29.640Z,18.90
2019-02-28T00:38:33.276Z,16.07
2019-02-28T00:39:36.910Z,16.37
2019-02-28T00:40:40.571Z,13.78
2019-02-28T00:41:44.770Z,12.65
2019-02-28T00:42:50.820Z,11.88
2019-02-28T00:43:56.917Z,12.20
2019-02-28T00:45:02.269Z,10.68
2019-02-28T00:46:07.287Z,11.28
2019-02-28T00:47:09.863Z,10.75
2019-02-28T00:48:13.504Z,10.95
2019-02-28T00:49:32.231Z,9.60
2019-02-28T00:50:35.973Z,12.73
2019-02-28T00:51:39.615Z,14.10
2019-02-28T00:52:43.301Z,11.68
2019-02-28T00:53:46.931Z,13.28
2019-02-28T00:54:50.497Z,14.13
2019-02-28T00:55:54.449Z,12.50
2019-02-28T00:56:58.111Z,12.45
2019-02-28T00:58:02.039Z,12.43
2019-02-28T00:59:08.608Z,12.15
2019-02-28T01:00:15.231Z,15.23
2019-02-28T01:01:18.868Z,13.05
2019-02-28T01:02:22.530Z,13.88
2019-02-28T01:03:27.299Z,13.38
2019-02-28T01:04:31.601Z,12.37
2019-02-28T01:05:36.563Z,11.15
2019-02-28T01:06:41.753Z,9.25
2019-02-28T01:07:48.236Z,8.40
2019-02-28T01:08:52.984Z,7.05
2019-02-28T01:09:56.350Z,7.10
2019-02-28T01:10:59.987Z,6.67
2019-02-28T01:12:03.711Z,6.45
2019-02-28T01:13:07.368Z,6.20
2019-02-28T01:14:10.996Z,6.47
2019-02-28T01:15:18.685Z,6.60
2019-02-28T01:16:22.311Z,5.75
2019-02-28T01:17:26.748Z,5.70
2019-02-28T01:18:41.482Z,6.00
2019-02-28T01:19:45.107Z,5.62
2019-02-28T01:20:50.748Z,6.20
2019-02-28T01:21:55.450Z,6.40
2019-02-28T01:22:59.837Z,6.30
2019-02-28T01:24:03.481Z,7.00
2019-02-28T01:25:10.255Z,6.55
2019-02-28T01:26:13.896Z,6.70
2019-02-28T01:27:21.012Z,7.72
2019-02-28T01:28:23.407Z,11.05
2019-02-28T01:29:28.192Z,10.82
2019-02-28T01:30:31.826Z,8.93
2019-02-28T01:31:35.457Z,8.58
2019-02-28T01:32:39.146Z,10.88
2019-02-28T01:33:42.775Z,10.40
2019-02-28T01:34:46.446Z,9.08
2019-02-28T01:35:50.069Z,7.85
2019-02-28T01:36:53.704Z,8.13
2019-02-28T01:37:57.419Z,7.05
2019-02-28T01:39:01.046Z,15.00
2019-02-28T01:40:07.422Z,16.27
2019-02-28T01:41:11.894Z,15.30
2019-02-28T01:43:36.977Z,17.73
2019-02-28T01:44:40.536Z,17.50
2019-02-28T01:45:44.413Z,17.98
2019-02-28T01:46:48.657Z,19.02
2019-02-28T01:47:52.911Z,19.05
2019-02-28T01:48:56.535Z,18.17
2019-02-28T01:50:00.228Z,17.92
2019-02-28T01:51:03.925Z,18.55
2019-02-28T01:52:10.088Z,17.65
2019-02-28T01:53:13.315Z,18.02
2019-02-28T01:54:17.284Z,19.15
2019-02-28T01:55:20.902Z,18.98
2019-02-28T01:56:24.592Z,20.27
2019-02-28T01:57:28.381Z,20.32
2019-02-28T01:58:32.008Z,21.17
2019-02-28T01:59:35.638Z,19.87
2019-02-28T02:00:39.262Z,20.32
2019-02-28T02:01:42.896Z,21.50
2019-02-28T02:02:46.540Z,20.80
2019-02-28T02:03:50.174Z,22.20
2019-02-28T02:04:54.211Z,23.73
2019-02-28T02:05:57.853Z,24.85
2019-02-28T02:07:01.534Z,24.00
2019-02-28T02:08:07.313Z,23.07
2019-02-28T02:09:11.860Z,23.47
2019-02-28T02:10:21.706Z,22.45
2019-02-28T02:11:26.714Z,22.17
2019-02-28T02:12:31.679Z,21.97
2019-02-28T02:13:36.824Z,22.35
2019-02-28T02:14:44.898Z,23.98
2019-02-28T02:15:50.961Z,23.00
2019-02-28T02:16:52.521Z,21.55
2019-02-28T02:17:56.203Z,21.48
2019-02-28T02:18:59.830Z,20.68
2019-02-28T02:20:04.157Z,20.20
2019-02-28T02:21:07.810Z,19.62
2019-02-28T02:22:11.434Z,19.45
2019-02-28T02:23:17.804Z,18.55
2019-02-28T02:24:20.391Z,18.62
2019-02-28T02:25:24.021Z,17.62
2019-02-28T02:26:27.750Z,16.87
2019-02-28T02:27:31.365Z,18.75
2019-02-28T02:28:35.013Z,17.98
2019-02-28T02:29:38.647Z,17.50
2019-02-28T02:30:42.741Z,18.65
2019-02-28T02:31:46.355Z,18.32
2019-02-28T02:32:49.973Z,18.67
2019-02-28T02:33:53.625Z,17.37
2019-02-28T02:34:57.241Z,17.67
2019-02-28T02:36:00.889Z,17.95
2019-02-28T02:37:04.522Z,17.80
2019-02-28T02:38:08.143Z,17.65
2019-02-28T02:39:16.320Z,16.97
2019-02-28T02:40:17.680Z,18.05
2019-02-28T02:41:21.286Z,18.95
2019-02-28T02:42:24.920Z,18.60
2019-02-28T02:43:28.624Z,18.98
2019-02-28T02:44:32.307Z,19.20
2019-02-28T02:45:41.911Z,20.25
2019-02-28T02:46:41.280Z,18.20
2019-02-28T02:47:45.291Z,16.30
2019-02-28T02:48:48.897Z,17.65
2019-02-28T02:49:57.419Z,16.97
2019-02-28T02:50:57.857Z,16.80
2019-02-28T02:52:01.483Z,16.45
2019-02-28T02:53:06.442Z,15.38
2019-02-28T02:54:10.319Z,14.80
2019-02-28T02:55:14.609Z,14.65
2019-02-28T02:56:18.216Z,15.50
2019-02-28T02:57:21.863Z,15.23
2019-02-28T02:58:27.830Z,14.87
2019-02-28T02:59:37.254Z,15.32
2019-02-28T03:00:36.178Z,15.28
2019-02-28T03:01:40.143Z,15.78
2019-02-28T03:02:44.137Z,14.68
2019-02-28T03:03:47.762Z,15.48
2019-02-28T03:04:57.889Z,15.20
2019-02-28T03:05:56.851Z,16.07
2019-02-28T03:07:00.493Z,15.20
2019-02-28T03:08:04.099Z,15.32
2019-02-28T03:09:09.879Z,16.40
2019-02-28T03:10:17.474Z,15.88
2019-02-28T03:11:24.851Z,15.40
2019-02-28T03:12:31.204Z,15.98
2019-02-28T03:13:31.670Z,16.42
2019-02-28T03:14:35.284Z,17.05
2019-02-28T03:15:38.926Z,17.87
2019-02-28T03:16:42.610Z,19.37
2019-02-28T03:17:47.126Z,17.92
2019-02-28T03:18:56.826Z,19.70
2019-02-28T03:19:56.980Z,18.92
2019-02-28T03:21:00.599Z,17.52
2019-02-28T03:22:04.271Z,18.75
2019-02-28T03:23:07.909Z,17.87
2019-02-28T03:24:15.203Z,19.85
2019-02-28T03:25:17.634Z,19.70
2019-02-28T03:26:21.314Z,18.85
2019-02-28T03:27:24.877Z,19.62
2019-02-28T03:28:32.047Z,19.77
2019-02-28T03:29:33.906Z,19.40
2019-02-28T03:30:37.545Z,18.62
2019-02-28T03:31:41.213Z,18.02
2019-02-28T03:32:44.934Z,19.15
2019-02-28T03:33:48.566Z,18.70
2019-02-28T03:34:57.888Z,17.62
2019-02-28T03:35:57.493Z,18.17
2019-02-28T03:37:01.171Z,17.75
2019-02-28T03:38:10.633Z,17.25
2019-02-28T03:39:10.176Z,16.52
2019-02-28T03:40:15.596Z,18.50
2019-02-28T03:41:19.230Z,16.93
2019-02-28T03:42:28.605Z,17.60
2019-02-28T03:43:28.607Z,17.15
2019-02-28T03:44:32.238Z,16.32
2019-02-28T03:45:35.870Z,16.85
2019-02-28T03:46:46.433Z,17.10
2019-02-28T03:47:45.686Z,16.67
2019-02-28T03:48:49.323Z,16.37
2019-02-28T03:49:53.265Z,15.80
2019-02-28T03:50:56.914Z,16.23
2019-02-28T03:52:05.569Z,16.85
2019-02-28T03:53:05.936Z,17.05
2019-02-28T03:54:09.916Z,16.85
2019-02-28T03:55:14.415Z,15.35
2019-02-28T03:56:18.181Z,16.95
2019-02-28T03:57:27.976Z,16.97
2019-02-28T03:58:27.883Z,16.37
2019-02-28T03:59:31.519Z,16.05
2019-02-28T04:00:35.155Z,16.82
2019-02-28T04:01:45.029Z,17.05
2019-02-28T04:02:44.579Z,17.10
2019-02-28T04:03:48.228Z,16.87
2019-02-28T04:04:51.871Z,17.32
2019-02-28T04:06:03.003Z,16.77
2019-02-28T04:07:00.888Z,17.48
2019-02-28T04:08:04.627Z,16.35
2019-02-28T04:09:09.140Z,17.35
2019-02-28T04:10:16.814Z,17.37
2019-02-28T04:11:19.883Z,17.50
2019-02-28T04:12:23.521Z,18.82
2019-02-28T04:13:27.227Z,18.35
2019-02-28T04:14:33.018Z,18.02
2019-02-28T04:15:36.840Z,18.35
2019-02-28T04:16:40.535Z,19.35
2019-02-28T04:17:44.762Z,20.50
2019-02-28T04:18:48.419Z,19.67
2019-02-28T04:19:58.756Z,19.10
2019-02-28T04:20:57.432Z,21.27
2019-02-28T04:22:01.133Z,19.90
2019-02-28T04:23:04.881Z,20.88
2019-02-28T04:24:12.901Z,20.27
2019-02-28T04:25:13.983Z,19.87
2019-02-28T04:26:17.610Z,19.65
2019-02-28T04:27:21.240Z,18.95
2019-02-28T04:28:24.811Z,20.15
2019-02-28T04:29:31.199Z,20.37
2019-02-28T04:30:34.632Z,20.68
2019-02-28T04:31:38.201Z,19.45
2019-02-28T04:32:41.936Z,19.30
2019-02-28T04:33:45.514Z,20.68
2019-02-28T04:34:49.881Z,20.15
2019-02-28T04:35:56.801Z,17.25
2019-02-28T04:36:58.903Z,19.27
2019-02-28T04:38:02.541Z,18.32
2019-02-28T04:39:06.848Z,20.68
2019-02-28T04:40:12.264Z,20.32
2019-02-28T04:41:15.934Z,20.50
2019-02-28T04:42:19.935Z,20.25
2019-02-28T04:43:23.505Z,20.25
2019-02-28T04:44:27.077Z,19.37
2019-02-28T04:45:30.717Z,19.45
2019-02-28T04:46:34.401Z,20.08
2019-02-28T04:47:40.449Z,19.32
2019-02-28T04:48:45.668Z,20.23
2019-02-28T04:49:48.675Z,21.23
2019-02-28T04:50:52.296Z,21.93
2019-02-28T04:51:55.960Z,23.30
2019-02-28T04:52:59.602Z,24.45
2019-02-28T04:54:03.241Z,23.18
2019-02-28T04:55:07.582Z,23.32
2019-02-28T04:56:12.141Z,23.85
2019-02-28T04:57:17.412Z,22.73
2019-02-28T04:58:22.310Z,24.20
2019-02-28T04:59:26.681Z,26.75
2019-02-28T05:00:30.417Z,25.20
2019-02-28T05:01:34.049Z,24.87
2019-02-28T05:02:37.712Z,25.10
2019-02-28T05:03:41.466Z,23.30
2019-02-28T05:04:45.091Z,23.77
2019-02-28T05:05:48.716Z,23.98
2019-02-28T05:06:55.292Z,23.75
2019-02-28T05:07:57.759Z,24.40
2019-02-28T05:09:01.395Z,24.45
2019-02-28T05:10:07.019Z,26.07
2019-02-28T05:11:10.656Z,27.25
2019-02-28T05:12:14.317Z,26.35
2019-02-28T05:13:18.010Z,25.10
2019-02-28T05:14:23.793Z,25.20
2019-02-28T05:15:27.084Z,26.05
2019-02-28T05:16:30.726Z,39.23
2019-02-28T05:17:34.374Z,28.73
2019-02-28T05:18:38.037Z,26.57
2019-02-28T05:19:41.683Z,26.12
2019-02-28T05:20:46.050Z,26.57
2019-02-28T05:21:50.638Z,25.77
2019-02-28T05:22:54.989Z,25.00
2019-02-28T05:23:58.664Z,24.47
2019-02-28T05:25:02.302Z,24.32
2019-02-28T05:26:06.512Z,21.77
2019-02-28T05:27:10.217Z,20.35
2019-02-28T05:28:13.786Z,24.02
2019-02-28T05:29:17.455Z,24.23
2019-02-28T05:30:22.562Z,24.10
2019-02-28T05:31:27.125Z,23.22
2019-02-28T05:32:32.135Z,24.57
2019-02-28T05:33:38.387Z,22.87
2019-02-28T05:34:42.370Z,22.85
2019-02-28T05:35:45.934Z,24.07
2019-02-28T05:36:49.574Z,24.65
2019-02-28T05:37:53.214Z,22.30
2019-02-28T05:38:57.342Z,27.42
2019-02-28T05:40:05.234Z,30.60
2019-02-28T05:41:06.468Z,24.60
2019-02-28T05:42:10.112Z,24.90
2019-02-28T05:43:13.744Z,23.45
2019-02-28T05:44:18.455Z,24.85
2019-02-28T05:45:22.113Z,28.00
2019-02-28T05:46:25.674Z,28.35
2019-02-28T05:47:32.244Z,28.12
2019-02-28T05:48:38.605Z,27.80
2019-02-28T05:49:43.000Z,28.98
2019-02-28T05:50:52.810Z,28.80
2019-02-28T05:51:58.573Z,29.27
2019-02-28T05:52:59.951Z,33.20
2019-02-28T05:54:03.587Z,31.75
2019-02-28T05:55:09.132Z,33.70
2019-02-28T05:56:12.771Z,34.48
2019-02-28T05:57:16.414Z,58.28
2019-02-28T05:58:20.901Z,54.73
2019-02-28T05:59:27.402Z,67.12
2019-02-28T06:00:30.037Z,83.03
2019-02-28T06:01:33.975Z,59.25
2019-02-28T06:02:37.623Z,48.78
2019-02-28T06:03:41.573Z,45.35
2019-02-28T06:04:45.204Z,48.65
2019-02-28T06:05:48.895Z,45.73
2019-02-28T06:06:54.687Z,42.50
2019-02-28T06:08:00.566Z,34.85
2019-02-28T06:09:05.033Z,34.35
2019-02-28T06:10:11.479Z,37.80
2019-02-28T06:11:15.387Z,38.50
2019-02-28T06:12:19.193Z,31.90
2019-02-28T06:13:22.825Z,31.52
2019-02-28T06:14:27.624Z,31.07
2019-02-28T06:15:34.176Z,30.70
2019-02-28T06:16:36.781Z,29.10
2019-02-28T06:17:40.491Z,29.87
2019-02-28T06:18:44.127Z,38.50
2019-02-28T06:19:47.764Z,33.73
2019-02-28T06:20:52.264Z,32.45
2019-02-28T06:21:56.289Z,31.73
2019-02-28T06:23:01.686Z,35.78
2019-02-28T06:24:05.319Z,39.05
2019-02-28T06:25:10.552Z,37.23
2019-02-28T06:26:14.208Z,35.48
2019-02-28T06:27:18.464Z,34.88
2019-02-28T06:28:22.099Z,38.63
2019-02-28T06:29:25.747Z,44.83
2019-02-28T06:30:29.445Z,44.83
2019-02-28T06:31:34.469Z,44.33
2019-02-28T06:32:38.216Z,44.93
2019-02-28T06:33:41.901Z,43.42
2019-02-28T06:34:45.460Z,42.40
2019-02-28T06:35:49.521Z,34.95
2019-02-28T06:36:56.699Z,40.30
2019-02-28T06:38:00.423Z,34.38
2019-02-28T06:39:05.131Z,32.78
2019-02-28T06:40:15.632Z,35.83
2019-02-28T06:41:19.321Z,29.67
2019-02-28T06:42:23.035Z,30.52
2019-02-28T06:43:26.777Z,28.20
2019-02-28T06:44:30.349Z,25.60
2019-02-28T06:45:36.790Z,26.60
2019-02-28T06:46:40.009Z,24.00
2019-02-28T06:47:47.976Z,28.80
2019-02-28T06:48:49.766Z,27.82
2019-02-28T06:49:53.406Z,26.65
2019-02-28T06:50:57.021Z,30.48
2019-02-28T06:52:00.653Z,26.30
2019-02-28T06:53:04.294Z,25.45
2019-02-28T06:54:08.755Z,27.67
2019-02-28T06:55:14.742Z,27.60
2019-02-28T06:56:21.888Z,27.82
2019-02-28T06:57:26.854Z,28.07
2019-02-28T06:58:30.500Z,27.75
2019-02-28T06:59:36.191Z,26.73
2019-02-28T07:00:40.527Z,27.73
2019-02-28T07:01:44.158Z,27.42
2019-02-28T07:02:49.969Z,27.45
2019-02-28T07:03:53.783Z,27.15
2019-02-28T07:04:57.681Z,26.57
2019-02-28T07:06:01.998Z,27.52
2019-02-28T07:07:07.445Z,25.27
2019-02-28T07:08:11.162Z,24.32
2019-02-28T07:09:14.868Z,26.02
2019-02-28T07:10:18.817Z,26.00
2019-02-28T07:11:23.266Z,28.30
2019-02-28T07:12:30.459Z,26.62
2019-02-28T07:13:38.912Z,24.43
2019-02-28T07:14:39.716Z,22.50
2019-02-28T07:15:43.388Z,24.55
2019-02-28T07:16:47.030Z,23.07
2019-02-28T07:17:50.671Z,25.15
2019-02-28T07:18:54.452Z,32.23
2019-02-28T07:20:01.340Z,31.97
2019-02-28T07:21:03.600Z,27.10
2019-02-28T07:22:07.240Z,23.77
2019-02-28T07:23:10.891Z,22.48
2019-02-28T07:24:15.971Z,20.80
2019-02-28T07:25:19.664Z,19.67
2019-02-28T07:26:23.337Z,19.25
2019-02-28T07:27:29.720Z,18.75
2019-02-28T07:28:36.178Z,19.82
2019-02-28T07:29:37.954Z,18.30
2019-02-28T07:30:41.602Z,19.17
2019-02-28T07:31:45.276Z,17.12
2019-02-28T07:32:48.910Z,17.90
2019-02-28T07:33:52.561Z,17.25
2019-02-28T07:34:58.060Z,20.77
2019-02-28T07:36:01.555Z,21.90
2019-02-28T07:37:05.241Z,20.77
2019-02-28T07:38:08.823Z,24.92
2019-02-28T07:39:12.467Z,24.55
2019-02-28T07:40:17.535Z,26.25
2019-02-28T07:41:26.496Z,19.73
2019-02-28T07:42:26.668Z,19.02
2019-02-28T07:43:31.768Z,18.03
2019-02-28T07:44:37.934Z,21.67
2019-02-28T07:45:41.772Z,21.73
2019-02-28T07:46:45.447Z,18.55
2019-02-28T07:47:52.731Z,17.07
2019-02-28T07:48:54.556Z,17.63
2019-02-28T07:49:58.189Z,16.70
2019-02-28T07:51:02.167Z,17.83
2019-02-28T07:52:05.806Z,19.20
2019-02-28T07:53:09.814Z,22.50
2019-02-28T07:54:15.802Z,21.90
2019-02-28T07:55:21.281Z,24.43
2019-02-28T07:56:24.946Z,18.47
2019-02-28T07:57:28.579Z,16.70
2019-02-28T07:58:33.424Z,18.43
2019-02-28T07:59:40.969Z,17.57
2019-02-28T08:00:42.632Z,18.37
2019-02-28T08:01:46.271Z,17.60
2019-02-28T08:02:49.909Z,16.93
2019-02-28T08:03:54.573Z,16.27
2019-02-28T08:04:58.202Z,18.13
2019-02-28T08:06:04.768Z,23.37
2019-02-28T08:07:07.230Z,21.87
2019-02-28T08:08:10.963Z,20.60
2019-02-28T08:09:25.455Z,24.10
2019-02-28T08:10:30.382Z,20.90
2019-02-28T08:11:34.057Z,20.53
2019-02-28T08:12:37.777Z,15.27
2019-02-28T08:13:41.442Z,16.10
2019-02-28T08:14:47.119Z,14.97
2019-02-28T08:15:53.330Z,13.87
2019-02-28T08:16:55.996Z,12.37
2019-02-28T08:17:59.639Z,13.13
2019-02-28T08:19:03.277Z,15.90
2019-02-28T08:20:08.340Z,17.70
2019-02-28T08:21:12.253Z,19.40
2019-02-28T08:22:15.907Z,12.27
2019-02-28T08:23:19.624Z,12.87
2019-02-28T08:24:23.248Z,13.10
2019-02-28T08:25:26.921Z,13.03
2019-02-28T08:26:30.604Z,13.27
2019-02-28T08:27:34.245Z,13.10
2019-02-28T08:28:37.982Z,12.93
2019-02-28T08:29:44.767Z,12.20
2019-02-28T08:30:47.440Z,13.60
2019-02-28T08:31:51.226Z,13.00
2019-02-28T08:32:54.937Z,13.57
2019-02-28T08:33:58.706Z,11.93
2019-02-28T08:35:02.360Z,12.50
2019-02-28T08:36:16.723Z,13.10
2019-02-28T08:37:22.372Z,12.87
2019-02-28T08:38:25.906Z,20.80
2019-02-28T08:39:29.600Z,34.00
2019-02-28T08:40:33.321Z,24.27
2019-02-28T08:41:36.979Z,20.27
2019-02-28T08:42:40.793Z,19.37
2019-02-28T08:43:47.530Z,26.00
2019-02-28T08:44:49.853Z,14.83
2019-02-28T08:45:53.520Z,12.47
2019-02-28T08:46:57.194Z,10.77
2019-02-28T08:48:00.834Z,12.83
2019-02-28T08:49:07.264Z,16.40
2019-02-28T08:50:19.174Z,13.13
2019-02-28T08:51:22.969Z,12.37
2019-02-28T08:52:27.788Z,11.80
2019-02-28T08:53:31.420Z,10.97
2019-02-28T08:54:35.098Z,12.73
2019-02-28T08:55:39.990Z,13.77
2019-02-28T08:56:46.222Z,12.90
2019-02-28T08:57:54.747Z,10.40
2019-02-28T08:58:55.142Z,9.60
2019-02-28T08:59:58.776Z,9.00
2019-02-28T09:01:05.336Z,9.83
2019-02-28T09:02:08.639Z,10.67
2019-02-28T09:03:12.314Z,13.37
2019-02-28T09:04:15.954Z,11.87
2019-02-28T09:05:25.524Z,14.03
2019-02-28T09:06:25.053Z,11.67
2019-02-28T09:07:28.788Z,12.33
2019-02-28T09:08:32.463Z,11.70
2019-02-28T09:09:36.110Z,13.47
2019-02-28T09:10:39.752Z,14.07
2019-02-28T09:11:43.394Z,13.53
2019-02-28T09:12:47.194Z,12.93
2019-02-28T09:13:50.938Z,11.47
2019-02-28T09:14:55.456Z,9.50
2019-02-28T09:16:01.934Z,9.60
2019-02-28T09:17:06.998Z,10.30
2019-02-28T09:18:10.636Z,10.00
2019-02-28T09:19:14.232Z,10.63
2019-02-28T09:20:18.265Z,11.60
2019-02-28T09:21:21.888Z,9.60
2019-02-28T09:22:27.343Z,10.50
2019-02-28T09:23:30.898Z,9.30
2019-02-28T09:24:34.572Z,9.27
2019-02-28T09:25:38.207Z,10.20
2019-02-28T09:26:41.894Z,9.80
2019-02-28T09:27:45.539Z,10.60
2019-02-28T09:28:49.201Z,10.07
2019-02-28T09:29:54.877Z,10.60
2019-02-28T09:31:01.442Z,10.30
2019-02-28T09:32:05.747Z,15.57
2019-02-28T09:33:09.389Z,13.60
2019-02-28T09:34:13.035Z,16.47
2019-02-28T09:35:16.717Z,11.50
2019-02-28T09:36:21.508Z,9.67
2019-02-28T09:37:29.521Z,9.77
2019-02-28T09:38:30.771Z,9.17
2019-02-28T09:39:34.350Z,9.60
2019-02-28T09:40:38.000Z,10.60
2019-02-28T09:41:41.664Z,13.63
2019-02-28T09:42:47.842Z,16.83
2019-02-28T09:43:50.671Z,14.07
2019-02-28T09:44:54.310Z,12.63
2019-02-28T09:45:57.987Z,8.97
2019-02-28T09:47:01.625Z,8.70
2019-02-28T09:48:05.360Z,8.80
2019-02-28T09:49:12.238Z,12.20
2019-02-28T09:50:19.356Z,8.80
2019-02-28T09:51:22.985Z,8.07
2019-02-28T09:52:26.615Z,8.43
2019-02-28T09:53:30.248Z,8.63
2019-02-28T09:54:33.892Z,7.70
2019-02-28T09:55:37.527Z,25.70
2019-02-28T09:56:44.588Z,8.53
2019-02-28T09:57:46.640Z,8.40
2019-02-28T09:58:50.279Z,8.20
2019-02-28T09:59:53.925Z,9.07
2019-02-28T10:00:57.959Z,9.83
2019-02-28T10:02:05.020Z,7.57
2019-02-28T10:03:06.997Z,8.80
2019-02-28T10:04:10.712Z,8.80
2019-02-28T10:05:14.646Z,8.17
2019-02-28T10:06:18.284Z,12.63
2019-02-28T10:07:23.363Z,11.20
2019-02-28T10:08:27.328Z,9.07
2019-02-28T10:09:31.395Z,8.60
2019-02-28T10:10:35.033Z,9.10
2019-02-28T10:11:40.461Z,9.90
2019-02-28T10:12:44.280Z,12.80
2019-02-28T10:13:49.589Z,11.90
2019-02-28T10:14:53.380Z,28.93
2019-02-28T10:15:57.019Z,20.47
2019-02-28T10:17:00.736Z,16.80
2019-02-28T10:18:05.276Z,12.70
2019-02-28T10:19:10.198Z,10.87
2019-02-28T10:20:26.335Z,10.97
2019-02-28T10:21:27.801Z,8.67
2019-02-28T10:22:31.427Z,9.40
2019-02-28T10:23:35.083Z,9.27
2019-02-28T10:24:38.711Z,8.50
2019-02-28T10:25:43.723Z,9.10
2019-02-28T10:26:48.178Z,9.43
2019-02-28T10:27:54.610Z,10.80
2019-02-28T10:28:58.660Z,10.93
2019-02-28T10:30:02.295Z,9.40
2019-02-28T10:31:05.945Z,9.07
2019-02-28T10:32:09.751Z,9.53
2019-02-28T10:33:14.291Z,9.67
2019-02-28T10:34:19.125Z,10.23
2019-02-28T10:35:22.805Z,9.73
2019-02-28T10:36:26.443Z,8.77
2019-02-28T10:37:30.072Z,8.70
2019-02-28T10:38:33.900Z,8.17
2019-02-28T10:39:40.291Z,7.97
2019-02-28T10:40:43.509Z,8.43
2019-02-28T10:41:47.177Z,7.63
2019-02-28T10:42:50.809Z,8.13
2019-02-28T10:43:55.942Z,8.00
2019-02-28T10:44:59.795Z,7.10
2019-02-28T10:46:03.698Z,7.30
2019-02-28T10:47:07.337Z,8.07
2019-02-28T10:48:11.026Z,7.50
2019-02-28T10:49:14.663Z,7.70
2019-02-28T10:50:25.829Z,7.63
2019-02-28T10:51:29.231Z,8.23
2019-02-28T10:52:33.857Z,7.57
2019-02-28T10:53:39.365Z,7.87
2019-02-28T10:54:42.853Z,8.33
2019-02-28T10:55:46.596Z,7.53
2019-02-28T10:56:50.297Z,7.73
2019-02-28T10:57:53.950Z,9.67
2019-02-28T10:58:57.572Z,9.57
2019-02-28T11:00:01.267Z,8.13
2019-02-28T11:01:08.681Z,7.53
2019-02-28T11:02:18.990Z,12.90
2019-02-28T11:03:19.196Z,8.13
2019-02-28T11:04:22.897Z,9.37
2019-02-28T11:05:31.096Z,8.00
2019-02-28T11:06:38.009Z,7.43
2019-02-28T11:07:41.646Z,8.43
2019-02-28T11:08:47.482Z,8.03
2019-02-28T11:09:52.216Z,7.77
2019-02-28T11:10:55.866Z,8.10
2019-02-28T11:11:59.543Z,7.80
2019-02-28T11:13:03.199Z,7.33
2019-02-28T11:14:08.847Z,6.03
2019-02-28T11:15:13.854Z,7.20
2019-02-28T11:16:20.428Z,8.18
2019-02-28T11:17:23.130Z,7.97
2019-02-28T11:18:26.865Z,7.07
2019-02-28T11:19:30.564Z,7.07
2019-02-28T11:20:34.218Z,6.17
2019-02-28T11:21:37.866Z,6.47
2019-02-28T11:22:41.674Z,7.12
2019-02-28T11:23:46.485Z,7.10
2019-02-28T11:24:51.358Z,7.37
2019-02-28T11:25:55.406Z,7.67
2019-02-28T11:26:59.054Z,11.10
2019-02-28T11:28:02.825Z,17.87
2019-02-28T11:29:06.563Z,10.98
2019-02-28T11:30:13.112Z,7.12
2019-02-28T11:31:19.217Z,7.55
2019-02-28T11:32:23.237Z,6.72
2019-02-28T11:33:26.900Z,7.00
2019-02-28T11:34:30.744Z,6.67
2019-02-28T11:35:34.478Z,7.12
2019-02-28T11:36:38.503Z,5.92
2019-02-28T11:37:45.350Z,5.95
2019-02-28T11:38:48.055Z,7.15
2019-02-28T11:39:51.771Z,7.95
2019-02-28T11:40:57.540Z,7.95
2019-02-28T11:42:00.804Z,6.37
2019-02-28T11:43:05.130Z,6.50
2019-02-28T11:44:09.305Z,6.15
2019-02-28T11:45:26.502Z,5.83
2019-02-28T11:46:30.151Z,7.70
2019-02-28T11:47:33.853Z,7.83
2019-02-28T11:48:37.427Z,9.10
2019-02-28T11:49:41.229Z,8.93
2019-02-28T11:50:45.173Z,5.50
2019-02-28T11:51:49.377Z,8.50
2019-02-28T11:52:54.269Z,8.05
2019-02-28T11:53:57.922Z,10.45
2019-02-28T11:55:01.644Z,6.28
2019-02-28T11:56:05.277Z,5.80
2019-02-28T11:57:10.240Z,7.67
2019-02-28T11:58:17.581Z,8.20
2019-02-28T11:59:20.403Z,8.63
2019-02-28T12:00:35.835Z,7.12
2019-02-28T12:01:38.030Z,6.25
2019-02-28T12:02:41.668Z,5.47
2019-02-28T12:03:45.296Z,5.05
2019-02-28T12:04:49.119Z,6.05
2019-02-28T12:05:52.796Z,11.43
2019-02-28T12:06:57.390Z,8.53
2019-02-28T12:08:01.941Z,19.35
2019-02-28T12:09:07.292Z,9.93
2019-02-28T12:10:11.284Z,7.92
2019-02-28T12:11:15.017Z,6.72
2019-02-28T12:12:18.690Z,10.95
2019-02-28T12:13:22.453Z,10.05
2019-02-28T12:14:26.447Z,20.75
2019-02-28T12:15:33.817Z,11.53
2019-02-28T12:16:37.497Z,5.35
2019-02-28T12:17:41.142Z,10.63
2019-02-28T12:18:46.523Z,13.08
2019-02-28T12:19:50.640Z,20.52
2019-02-28T12:20:55.034Z,16.25
2019-02-28T12:22:00.146Z,13.72
2019-02-28T12:23:04.057Z,15.05
2019-02-28T12:24:07.705Z,12.35
2019-02-28T12:25:14.292Z,10.38
2019-02-28T12:26:18.811Z,8.33
2019-02-28T12:27:24.345Z,6.00
2019-02-28T12:28:27.986Z,5.47
2019-02-28T12:29:31.584Z,5.97
2019-02-28T12:30:36.264Z,8.13
2019-02-28T12:31:39.886Z,6.33
2019-02-28T12:32:44.193Z,5.35
2019-02-28T12:33:47.905Z,4.65
2019-02-28T12:34:51.619Z,5.28
2019-02-28T12:35:55.198Z,5.30
2019-02-28T12:36:59.948Z,7.55
2019-02-28T12:38:03.782Z,5.22
2019-02-28T12:39:08.229Z,6.37
2019-02-28T12:40:20.365Z,6.10
2019-02-28T12:41:25.134Z,6.08
2019-02-28T12:42:31.638Z,5.92
2019-02-28T12:43:34.735Z,5.83
2019-02-28T12:44:38.793Z,6.10
2019-02-28T12:45:47.262Z,5.95
2019-02-28T12:46:50.785Z,5.45
2019-02-28T12:47:54.419Z,7.28
2019-02-28T12:48:58.140Z,6.65
2019-02-28T12:50:01.778Z,6.78
2019-02-28T12:51:06.207Z,6.97
2019-02-28T12:52:11.257Z,6.53
2019-02-28T12:53:15.653Z,6.83
2019-02-28T12:54:19.668Z,7.80
2019-02-28T12:55:23.518Z,6.97
2019-02-28T12:56:27.236Z,6.53
2019-02-28T12:57:30.872Z,5.95
2019-02-28T12:58:38.864Z,6.83
2019-02-28T12:59:41.794Z,6.55
2019-02-28T13:00:47.231Z,5.58
2019-02-28T13:01:51.133Z,5.72
2019-02-28T13:02:54.688Z,5.03
2019-02-28T13:04:00.590Z,5.42
2019-02-28T13:05:04.895Z,5.33
2019-02-28T13:06:08.527Z,4.75
2019-02-28T13:07:12.525Z,6.00
2019-02-28T13:08:16.166Z,5.08
2019-02-28T13:09:19.795Z,5.12
2019-02-28T13:10:28.005Z,5.58
2019-02-28T13:11:29.242Z,6.25
2019-02-28T13:12:33.250Z,6.55
2019-02-28T13:13:37.096Z,5.60
2019-02-28T13:14:41.816Z,5.95
2019-02-28T13:15:46.776Z,5.78
2019-02-28T13:16:50.671Z,5.20
2019-02-28T13:17:54.334Z,5.17
2019-02-28T13:18:58.065Z,5.03
2019-02-28T13:20:01.812Z,5.72
2019-02-28T13:21:06.190Z,5.97
2019-02-28T13:22:11.019Z,5.03
2019-02-28T13:23:16.979Z,5.28
2019-02-28T13:24:19.947Z,5.95
2019-02-28T13:25:24.803Z,5.42
2019-02-28T13:26:30.589Z,5.17
2019-02-28T13:27:34.390Z,5.50
2019-02-28T13:28:38.109Z,5.80
2019-02-28T13:29:42.144Z,5.35
2019-02-28T13:30:50.150Z,5.10
2019-02-28T13:31:51.336Z,5.30
2019-02-28T13:32:55.196Z,5.37
2019-02-28T13:34:01.086Z,5.20
2019-02-28T13:35:07.432Z,5.30
2019-02-28T13:36:12.983Z,5.85
2019-02-28T13:37:16.785Z,5.03
2019-02-28T13:38:20.439Z,5.28
2019-02-28T13:39:27.415Z,5.25
2019-02-28T13:40:29.792Z,5.55
2019-02-28T13:41:33.442Z,5.53
2019-02-28T13:42:40.504Z,6.20
2019-02-28T13:43:42.857Z,5.50
2019-02-28T13:44:46.565Z,4.97
2019-02-28T13:45:54.441Z,5.10
2019-02-28T13:46:55.657Z,6.50
2019-02-28T13:47:59.271Z,7.78
2019-02-28T13:49:02.905Z,13.88
2019-02-28T13:50:16.799Z,4.92
2019-02-28T13:51:20.246Z,5.05
2019-02-28T13:52:23.913Z,5.60
2019-02-28T13:53:30.588Z,5.65
2019-02-28T13:54:33.059Z,6.60
2019-02-28T13:55:36.712Z,5.35
2019-02-28T13:56:40.355Z,5.12
2019-02-28T13:57:46.748Z,4.62
2019-02-28T13:58:49.472Z,5.42
2019-02-28T13:59:53.101Z,5.58
2019-02-28T14:00:56.853Z,5.72